sensor_id;sensor_type;location;lat;lon;timestamp;P1;durP1;ratioP1;P2;durP2;ratioP2
4464;SDS011;2245;48.136;13.428;2022-08-14T00:00:19;7.53;;;6.30;;
4464;SDS011;2245;48.136;13.428;2022-08-14T00:02:47;8.17;;;6.33;;
4464;SDS011;2245;48.136;13.428;2022-08-14T00:05:16;8.53;;;6.00;;
4464;SDS011;2245;48.136;13.428;2022-08-14T00:07:45;10.63;;;6.03;;
4464;SDS011;2245;48.136;13.428;2022-08-14T00:10:13;6.97;;;6.27;;
4464;SDS011;2245;48.136;13.428;2022-08-14T00:12:42;7.03;;;6.33;;
4464;SDS011;2245;48.136;13.428;2022-08-14T00:15:11;9.37;;;7.20;;
4464;SDS011;2245;48.136;13.428;2022-08-14T00:17:41;6.67;;;5.97;;
4464;SDS011;2245;48.136;13.428;2022-08-14T00:20:08;7.97;;;6.60;;
4464;SDS011;2245;48.136;13.428;2022-08-14T00:22:37;9.57;;;6.20;;
4464;SDS011;2245;48.136;13.428;2022-08-14T00:25:05;8.10;;;6.50;;
4464;SDS011;2245;48.136;13.428;2022-08-14T00:27:33;7.50;;;6.10;;
4464;SDS011;2245;48.136;13.428;2022-08-14T00:30:00;6.10;;;5.50;;
4464;SDS011;2245;48.136;13.428;2022-08-14T00:32:27;6.33;;;5.40;;
4464;SDS011;2245;48.136;13.428;2022-08-14T00:34:53;6.63;;;6.03;;
4464;SDS011;2245;48.136;13.428;2022-08-14T00:37:25;6.83;;;6.10;;
4464;SDS011;2245;48.136;13.428;2022-08-14T00:39:53;7.07;;;6.10;;
4464;SDS011;2245;48.136;13.428;2022-08-14T00:42:20;7.23;;;6.47;;
4464;SDS011;2245;48.136;13.428;2022-08-14T00:44:48;7.20;;;6.00;;
4464;SDS011;2245;48.136;13.428;2022-08-14T00:47:15;6.73;;;6.03;;
4464;SDS011;2245;48.136;13.428;2022-08-14T00:49:43;6.80;;;5.93;;
4464;SDS011;2245;48.136;13.428;2022-08-14T00:52:10;6.63;;;6.00;;
4464;SDS011;2245;48.136;13.428;2022-08-14T00:54:37;6.63;;;5.83;;
4464;SDS011;2245;48.136;13.428;2022-08-14T00:57:06;7.40;;;6.60;;
4464;SDS011;2245;48.136;13.428;2022-08-14T00:59:33;6.77;;;6.00;;
4464;SDS011;2245;48.136;13.428;2022-08-14T01:02:00;9.20;;;5.97;;
4464;SDS011;2245;48.136;13.428;2022-08-14T01:04:28;7.20;;;6.07;;
4464;SDS011;2245;48.136;13.428;2022-08-14T01:06:56;7.00;;;6.00;;
4464;SDS011;2245;48.136;13.428;2022-08-14T01:09:25;6.70;;;6.00;;
4464;SDS011;2245;48.136;13.428;2022-08-14T01:11:52;6.43;;;5.80;;
4464;SDS011;2245;48.136;13.428;2022-08-14T01:14:20;6.50;;;5.63;;
4464;SDS011;2245;48.136;13.428;2022-08-14T01:16:47;6.80;;;6.10;;
4464;SDS011;2245;48.136;13.428;2022-08-14T01:19:14;12.57;;;6.60;;
4464;SDS011;2245;48.136;13.428;2022-08-14T01:22:00;7.07;;;6.07;;
4464;SDS011;2245;48.136;13.428;2022-08-14T01:24:27;7.33;;;6.20;;
4464;SDS011;2245;48.136;13.428;2022-08-14T01:26:55;7.17;;;6.20;;
4464;SDS011;2245;48.136;13.428;2022-08-14T01:29:23;7.07;;;6.37;;
4464;SDS011;2245;48.136;13.428;2022-08-14T01:31:50;7.57;;;5.90;;
4464;SDS011;2245;48.136;13.428;2022-08-14T01:34:17;6.60;;;6.00;;
4464;SDS011;2245;48.136;13.428;2022-08-14T01:36:47;9.53;;;6.70;;
4464;SDS011;2245;48.136;13.428;2022-08-14T01:39:16;7.63;;;6.93;;
4464;SDS011;2245;48.136;13.428;2022-08-14T01:41:44;7.03;;;6.33;;
4464;SDS011;2245;48.136;13.428;2022-08-14T01:44:13;7.37;;;6.57;;
4464;SDS011;2245;48.136;13.428;2022-08-14T01:46:41;10.80;;;6.97;;
4464;SDS011;2245;48.136;13.428;2022-08-14T01:49:10;13.10;;;6.37;;
4464;SDS011;2245;48.136;13.428;2022-08-14T01:51:40;6.77;;;6.17;;
4464;SDS011;2245;48.136;13.428;2022-08-14T01:54:09;7.23;;;6.53;;
4464;SDS011;2245;48.136;13.428;2022-08-14T01:56:39;12.07;;;6.30;;
4464;SDS011;2245;48.136;13.428;2022-08-14T01:59:09;9.97;;;8.10;;
4464;SDS011;2245;48.136;13.428;2022-08-14T02:01:45;10.40;;;6.20;;
4464;SDS011;2245;48.136;13.428;2022-08-14T02:04:13;8.93;;;6.37;;
4464;SDS011;2245;48.136;13.428;2022-08-14T02:06:39;10.03;;;6.10;;
4464;SDS011;2245;48.136;13.428;2022-08-14T02:09:08;6.47;;;5.87;;
4464;SDS011;2245;48.136;13.428;2022-08-14T02:11:35;11.03;;;6.27;;
4464;SDS011;2245;48.136;13.428;2022-08-14T02:14:04;8.20;;;5.90;;
4464;SDS011;2245;48.136;13.428;2022-08-14T02:16:32;9.07;;;6.53;;
4464;SDS011;2245;48.136;13.428;2022-08-14T02:19:03;9.50;;;6.87;;
4464;SDS011;2245;48.136;13.428;2022-08-14T02:21:32;6.80;;;6.10;;
4464;SDS011;2245;48.136;13.428;2022-08-14T02:24:00;7.63;;;5.60;;
4464;SDS011;2245;48.136;13.428;2022-08-14T02:26:29;7.97;;;6.13;;
4464;SDS011;2245;48.136;13.428;2022-08-14T02:28:57;6.93;;;6.07;;
4464;SDS011;2245;48.136;13.428;2022-08-14T02:31:28;7.00;;;6.30;;
4464;SDS011;2245;48.136;13.428;2022-08-14T02:33:57;7.03;;;6.33;;
4464;SDS011;2245;48.136;13.428;2022-08-14T02:36:25;11.03;;;7.13;;
4464;SDS011;2245;48.136;13.428;2022-08-14T02:38:52;7.60;;;6.50;;
4464;SDS011;2245;48.136;13.428;2022-08-14T02:41:19;9.43;;;6.63;;
4464;SDS011;2245;48.136;13.428;2022-08-14T02:43:46;7.33;;;6.57;;
4464;SDS011;2245;48.136;13.428;2022-08-14T02:46:13;7.40;;;6.67;;
4464;SDS011;2245;48.136;13.428;2022-08-14T02:48:42;9.03;;;6.43;;
4464;SDS011;2245;48.136;13.428;2022-08-14T02:51:10;8.60;;;7.07;;
4464;SDS011;2245;48.136;13.428;2022-08-14T02:53:38;8.90;;;6.43;;
4464;SDS011;2245;48.136;13.428;2022-08-14T02:56:07;21.97;;;7.90;;
4464;SDS011;2245;48.136;13.428;2022-08-14T02:58:37;10.93;;;7.27;;
4464;SDS011;2245;48.136;13.428;2022-08-14T03:01:05;10.87;;;7.33;;
4464;SDS011;2245;48.136;13.428;2022-08-14T03:03:33;10.73;;;7.20;;
4464;SDS011;2245;48.136;13.428;2022-08-14T03:06:02;10.33;;;7.80;;
4464;SDS011;2245;48.136;13.428;2022-08-14T03:08:30;9.60;;;7.40;;
4464;SDS011;2245;48.136;13.428;2022-08-14T03:10:58;13.77;;;7.83;;
4464;SDS011;2245;48.136;13.428;2022-08-14T03:13:25;10.33;;;7.27;;
4464;SDS011;2245;48.136;13.428;2022-08-14T03:15:52;9.23;;;8.00;;
4464;SDS011;2245;48.136;13.428;2022-08-14T03:18:19;8.30;;;7.13;;
4464;SDS011;2245;48.136;13.428;2022-08-14T03:20:48;10.03;;;7.70;;
4464;SDS011;2245;48.136;13.428;2022-08-14T03:23:16;10.10;;;8.03;;
4464;SDS011;2245;48.136;13.428;2022-08-14T03:25:44;11.13;;;9.20;;
4464;SDS011;2245;48.136;13.428;2022-08-14T03:28:12;7.90;;;7.10;;
4464;SDS011;2245;48.136;13.428;2022-08-14T03:30:39;12.37;;;8.93;;
4464;SDS011;2245;48.136;13.428;2022-08-14T03:33:07;11.30;;;7.43;;
4464;SDS011;2245;48.136;13.428;2022-08-14T03:35:34;12.93;;;7.73;;
4464;SDS011;2245;48.136;13.428;2022-08-14T03:38:05;30.37;;;8.07;;
4464;SDS011;2245;48.136;13.428;2022-08-14T03:40:34;11.60;;;8.10;;
4464;SDS011;2245;48.136;13.428;2022-08-14T03:43:03;12.53;;;8.90;;
4464;SDS011;2245;48.136;13.428;2022-08-14T03:45:30;12.07;;;8.63;;
4464;SDS011;2245;48.136;13.428;2022-08-14T03:47:59;11.10;;;7.73;;
4464;SDS011;2245;48.136;13.428;2022-08-14T03:50:28;12.90;;;8.90;;
4464;SDS011;2245;48.136;13.428;2022-08-14T03:52:56;11.80;;;8.83;;
4464;SDS011;2245;48.136;13.428;2022-08-14T03:55:23;14.03;;;9.60;;
4464;SDS011;2245;48.136;13.428;2022-08-14T03:57:53;12.03;;;8.53;;
4464;SDS011;2245;48.136;13.428;2022-08-14T04:00:21;13.70;;;9.23;;
4464;SDS011;2245;48.136;13.428;2022-08-14T04:02:48;9.60;;;8.17;;
4464;SDS011;2245;48.136;13.428;2022-08-14T04:05:15;17.70;;;9.07;;
4464;SDS011;2245;48.136;13.428;2022-08-14T04:07:41;14.03;;;7.90;;
4464;SDS011;2245;48.136;13.428;2022-08-14T04:10:08;13.80;;;9.37;;
4464;SDS011;2245;48.136;13.428;2022-08-14T04:12:35;10.40;;;8.57;;
4464;SDS011;2245;48.136;13.428;2022-08-14T04:15:04;18.87;;;8.13;;
4464;SDS011;2245;48.136;13.428;2022-08-14T04:17:31;11.77;;;8.57;;
4464;SDS011;2245;48.136;13.428;2022-08-14T04:19:58;9.57;;;7.83;;
4464;SDS011;2245;48.136;13.428;2022-08-14T04:22:28;16.37;;;9.50;;
4464;SDS011;2245;48.136;13.428;2022-08-14T04:24:55;22.23;;;9.93;;
4464;SDS011;2245;48.136;13.428;2022-08-14T04:27:23;15.30;;;9.20;;
4464;SDS011;2245;48.136;13.428;2022-08-14T04:29:51;14.80;;;9.70;;
4464;SDS011;2245;48.136;13.428;2022-08-14T04:32:19;12.83;;;9.90;;
4464;SDS011;2245;48.136;13.428;2022-08-14T04:34:50;13.17;;;10.07;;
4464;SDS011;2245;48.136;13.428;2022-08-14T04:37:18;28.80;;;18.87;;
4464;SDS011;2245;48.136;13.428;2022-08-14T04:40:04;32.67;;;19.77;;
4464;SDS011;2245;48.136;13.428;2022-08-14T04:42:49;14.80;;;12.03;;
4464;SDS011;2245;48.136;13.428;2022-08-14T04:45:33;11.87;;;10.13;;
4464;SDS011;2245;48.136;13.428;2022-08-14T04:48:04;14.20;;;11.30;;
4464;SDS011;2245;48.136;13.428;2022-08-14T04:50:40;13.37;;;11.97;;
4464;SDS011;2245;48.136;13.428;2022-08-14T04:53:09;12.70;;;10.43;;
4464;SDS011;2245;48.136;13.428;2022-08-14T04:55:38;11.80;;;9.70;;
4464;SDS011;2245;48.136;13.428;2022-08-14T04:58:07;10.30;;;9.20;;
4464;SDS011;2245;48.136;13.428;2022-08-14T05:00:34;10.90;;;8.83;;
4464;SDS011;2245;48.136;13.428;2022-08-14T05:03:01;11.40;;;8.30;;
4464;SDS011;2245;48.136;13.428;2022-08-14T05:05:30;9.57;;;8.60;;
4464;SDS011;2245;48.136;13.428;2022-08-14T05:08:02;12.80;;;8.60;;
4464;SDS011;2245;48.136;13.428;2022-08-14T05:10:33;9.70;;;7.70;;
4464;SDS011;2245;48.136;13.428;2022-08-14T05:13:01;8.40;;;7.60;;
4464;SDS011;2245;48.136;13.428;2022-08-14T05:15:30;9.50;;;8.20;;
4464;SDS011;2245;48.136;13.428;2022-08-14T05:18:00;13.80;;;11.80;;
4464;SDS011;2245;48.136;13.428;2022-08-14T05:20:28;14.33;;;7.57;;
4464;SDS011;2245;48.136;13.428;2022-08-14T05:22:57;10.40;;;7.80;;
4464;SDS011;2245;48.136;13.428;2022-08-14T05:25:24;11.10;;;8.30;;
4464;SDS011;2245;48.136;13.428;2022-08-14T05:27:51;13.77;;;8.77;;
4464;SDS011;2245;48.136;13.428;2022-08-14T05:30:18;8.47;;;7.70;;
4464;SDS011;2245;48.136;13.428;2022-08-14T05:32:45;7.83;;;7.23;;
4464;SDS011;2245;48.136;13.428;2022-08-14T05:35:12;9.60;;;8.60;;
4464;SDS011;2245;48.136;13.428;2022-08-14T05:37:39;20.40;;;16.07;;
4464;SDS011;2245;48.136;13.428;2022-08-14T05:40:08;9.70;;;8.80;;
4464;SDS011;2245;48.136;13.428;2022-08-14T05:42:35;10.80;;;9.80;;
4464;SDS011;2245;48.136;13.428;2022-08-14T05:45:03;8.00;;;6.80;;
4464;SDS011;2245;48.136;13.428;2022-08-14T05:47:32;12.93;;;10.03;;
4464;SDS011;2245;48.136;13.428;2022-08-14T05:50:04;16.67;;;12.80;;
4464;SDS011;2245;48.136;13.428;2022-08-14T05:52:32;14.07;;;11.40;;
4464;SDS011;2245;48.136;13.428;2022-08-14T05:54:59;9.30;;;8.50;;
4464;SDS011;2245;48.136;13.428;2022-08-14T05:57:27;7.40;;;6.90;;
4464;SDS011;2245;48.136;13.428;2022-08-14T05:59:54;6.70;;;6.20;;
4464;SDS011;2245;48.136;13.428;2022-08-14T06:02:21;7.93;;;7.15;;
4464;SDS011;2245;48.136;13.428;2022-08-14T06:04:48;6.50;;;5.93;;
4464;SDS011;2245;48.136;13.428;2022-08-14T06:07:15;6.07;;;5.63;;
4464;SDS011;2245;48.136;13.428;2022-08-14T06:09:42;8.35;;;7.57;;
4464;SDS011;2245;48.136;13.428;2022-08-14T06:12:09;7.00;;;6.50;;
4464;SDS011;2245;48.136;13.428;2022-08-14T06:14:37;6.38;;;5.97;;
4464;SDS011;2245;48.136;13.428;2022-08-14T06:17:04;5.60;;;5.20;;
4464;SDS011;2245;48.136;13.428;2022-08-14T06:19:31;5.43;;;5.10;;
4464;SDS011;2245;48.136;13.428;2022-08-14T06:21:58;6.32;;;5.70;;
4464;SDS011;2245;48.136;13.428;2022-08-14T06:24:24;6.00;;;5.40;;
4464;SDS011;2245;48.136;13.428;2022-08-14T06:26:51;5.32;;;4.93;;
4464;SDS011;2245;48.136;13.428;2022-08-14T06:29:18;6.63;;;6.22;;
4464;SDS011;2245;48.136;13.428;2022-08-14T06:31:46;6.40;;;5.68;;
4464;SDS011;2245;48.136;13.428;2022-08-14T06:34:13;5.53;;;5.03;;
4464;SDS011;2245;48.136;13.428;2022-08-14T06:36:41;4.55;;;4.30;;
4464;SDS011;2245;48.136;13.428;2022-08-14T06:39:07;4.68;;;4.47;;
4464;SDS011;2245;48.136;13.428;2022-08-14T06:41:34;4.25;;;4.03;;
4464;SDS011;2245;48.136;13.428;2022-08-14T06:44:01;5.00;;;4.60;;
4464;SDS011;2245;48.136;13.428;2022-08-14T06:46:28;5.28;;;4.97;;
4464;SDS011;2245;48.136;13.428;2022-08-14T06:48:56;5.60;;;5.10;;
4464;SDS011;2245;48.136;13.428;2022-08-14T06:51:23;9.10;;;5.05;;
4464;SDS011;2245;48.136;13.428;2022-08-14T06:53:50;5.40;;;5.00;;
4464;SDS011;2245;48.136;13.428;2022-08-14T06:56:17;5.18;;;4.80;;
4464;SDS011;2245;48.136;13.428;2022-08-14T06:58:44;5.35;;;5.05;;
4464;SDS011;2245;48.136;13.428;2022-08-14T07:01:11;6.15;;;5.75;;
4464;SDS011;2245;48.136;13.428;2022-08-14T07:03:56;5.75;;;5.35;;
4464;SDS011;2245;48.136;13.428;2022-08-14T07:06:41;6.03;;;5.53;;
4464;SDS011;2245;48.136;13.428;2022-08-14T07:09:08;5.30;;;5.00;;
4464;SDS011;2245;48.136;13.428;2022-08-14T07:11:35;5.57;;;5.18;;
4464;SDS011;2245;48.136;13.428;2022-08-14T07:14:02;5.88;;;5.57;;
4464;SDS011;2245;48.136;13.428;2022-08-14T07:16:29;5.90;;;5.50;;
4464;SDS011;2245;48.136;13.428;2022-08-14T07:18:57;5.88;;;5.45;;
4464;SDS011;2245;48.136;13.428;2022-08-14T07:21:24;5.68;;;5.35;;
4464;SDS011;2245;48.136;13.428;2022-08-14T07:23:51;6.10;;;5.70;;
4464;SDS011;2245;48.136;13.428;2022-08-14T07:26:18;5.32;;;5.03;;
4464;SDS011;2245;48.136;13.428;2022-08-14T07:28:45;6.00;;;5.43;;
4464;SDS011;2245;48.136;13.428;2022-08-14T07:31:12;6.78;;;6.28;;
4464;SDS011;2245;48.136;13.428;2022-08-14T07:33:40;5.35;;;5.05;;
4464;SDS011;2245;48.136;13.428;2022-08-14T07:36:10;4.68;;;4.43;;
4464;SDS011;2245;48.136;13.428;2022-08-14T07:38:38;6.13;;;5.57;;
4464;SDS011;2245;48.136;13.428;2022-08-14T07:41:06;5.93;;;5.32;;
4464;SDS011;2245;48.136;13.428;2022-08-14T07:43:34;5.78;;;5.38;;
4464;SDS011;2245;48.136;13.428;2022-08-14T07:46:01;5.50;;;5.10;;
4464;SDS011;2245;48.136;13.428;2022-08-14T07:48:28;6.18;;;5.78;;
4464;SDS011;2245;48.136;13.428;2022-08-14T07:50:55;5.60;;;5.30;;
4464;SDS011;2245;48.136;13.428;2022-08-14T07:53:24;6.38;;;5.75;;
4464;SDS011;2245;48.136;13.428;2022-08-14T07:55:50;5.70;;;5.20;;
4464;SDS011;2245;48.136;13.428;2022-08-14T07:58:17;6.90;;;6.40;;
4464;SDS011;2245;48.136;13.428;2022-08-14T08:00:44;6.78;;;6.28;;
4464;SDS011;2245;48.136;13.428;2022-08-14T08:03:11;5.40;;;5.00;;
4464;SDS011;2245;48.136;13.428;2022-08-14T08:05:38;5.47;;;5.10;;
4464;SDS011;2245;48.136;13.428;2022-08-14T08:08:06;5.78;;;5.47;;
4464;SDS011;2245;48.136;13.428;2022-08-14T08:10:35;6.22;;;5.72;;
4464;SDS011;2245;48.136;13.428;2022-08-14T08:13:06;5.57;;;5.28;;
4464;SDS011;2245;48.136;13.428;2022-08-14T08:15:35;6.18;;;5.78;;
4464;SDS011;2245;48.136;13.428;2022-08-14T08:18:04;5.93;;;5.40;;
4464;SDS011;2245;48.136;13.428;2022-08-14T08:20:33;6.47;;;5.13;;
4464;SDS011;2245;48.136;13.428;2022-08-14T08:23:02;6.28;;;5.88;;
4464;SDS011;2245;48.136;13.428;2022-08-14T08:25:31;7.57;;;4.90;;
4464;SDS011;2245;48.136;13.428;2022-08-14T08:28:01;5.00;;;4.70;;
4464;SDS011;2245;48.136;13.428;2022-08-14T08:30:30;6.57;;;6.18;;
4464;SDS011;2245;48.136;13.428;2022-08-14T08:32:59;5.75;;;5.35;;
4464;SDS011;2245;48.136;13.428;2022-08-14T08:35:28;6.05;;;5.72;;
4464;SDS011;2245;48.136;13.428;2022-08-14T08:38:00;5.90;;;5.50;;
4464;SDS011;2245;48.136;13.428;2022-08-14T08:40:29;6.60;;;6.13;;
4464;SDS011;2245;48.136;13.428;2022-08-14T08:43:01;8.37;;;7.30;;
4464;SDS011;2245;48.136;13.428;2022-08-14T08:45:28;9.20;;;6.80;;
4464;SDS011;2245;48.136;13.428;2022-08-14T08:47:56;8.77;;;8.07;;
4464;SDS011;2245;48.136;13.428;2022-08-14T08:50:23;7.80;;;7.20;;
4464;SDS011;2245;48.136;13.428;2022-08-14T08:52:54;8.57;;;7.87;;
4464;SDS011;2245;48.136;13.428;2022-08-14T08:55:26;12.90;;;8.57;;
4464;SDS011;2245;48.136;13.428;2022-08-14T08:57:55;10.30;;;8.50;;
4464;SDS011;2245;48.136;13.428;2022-08-14T09:00:24;9.07;;;7.83;;
4464;SDS011;2245;48.136;13.428;2022-08-14T09:02:58;11.37;;;8.80;;
4464;SDS011;2245;48.136;13.428;2022-08-14T09:05:27;10.83;;;9.73;;
4464;SDS011;2245;48.136;13.428;2022-08-14T09:08:09;15.20;;;9.17;;
4464;SDS011;2245;48.136;13.428;2022-08-14T09:10:36;10.63;;;9.40;;
4464;SDS011;2245;48.136;13.428;2022-08-14T09:13:03;11.47;;;9.07;;
4464;SDS011;2245;48.136;13.428;2022-08-14T09:15:31;9.57;;;8.47;;
4464;SDS011;2245;48.136;13.428;2022-08-14T09:17:58;12.90;;;8.90;;
4464;SDS011;2245;48.136;13.428;2022-08-14T09:20:25;11.00;;;8.90;;
4464;SDS011;2245;48.136;13.428;2022-08-14T09:22:53;8.90;;;7.93;;
4464;SDS011;2245;48.136;13.428;2022-08-14T09:25:20;11.63;;;9.23;;
4464;SDS011;2245;48.136;13.428;2022-08-14T09:27:47;9.80;;;7.80;;
4464;SDS011;2245;48.136;13.428;2022-08-14T09:30:13;9.70;;;7.60;;
4464;SDS011;2245;48.136;13.428;2022-08-14T09:32:45;8.47;;;7.77;;
4464;SDS011;2245;48.136;13.428;2022-08-14T09:35:20;8.93;;;7.80;;
4464;SDS011;2245;48.136;13.428;2022-08-14T09:37:53;9.67;;;8.67;;
4464;SDS011;2245;48.136;13.428;2022-08-14T09:40:26;8.13;;;7.50;;
4464;SDS011;2245;48.136;13.428;2022-08-14T09:43:04;7.30;;;6.70;;
4464;SDS011;2245;48.136;13.428;2022-08-14T09:45:42;7.43;;;6.70;;
4464;SDS011;2245;48.136;13.428;2022-08-14T09:48:16;7.93;;;7.23;;
4464;SDS011;2245;48.136;13.428;2022-08-14T09:50:45;8.43;;;7.53;;
4464;SDS011;2245;48.136;13.428;2022-08-14T09:53:14;10.83;;;7.03;;
4464;SDS011;2245;48.136;13.428;2022-08-14T09:55:42;8.33;;;7.63;;
4464;SDS011;2245;48.136;13.428;2022-08-14T09:58:10;10.10;;;9.13;;
4464;SDS011;2245;48.136;13.428;2022-08-14T10:00:43;10.87;;;9.77;;
4464;SDS011;2245;48.136;13.428;2022-08-14T10:03:11;8.67;;;7.87;;
4464;SDS011;2245;48.136;13.428;2022-08-14T10:05:39;7.97;;;7.23;;
4464;SDS011;2245;48.136;13.428;2022-08-14T10:08:15;8.60;;;7.80;;
4464;SDS011;2245;48.136;13.428;2022-08-14T10:10:44;9.30;;;8.50;;
4464;SDS011;2245;48.136;13.428;2022-08-14T10:13:20;10.23;;;8.47;;
4464;SDS011;2245;48.136;13.428;2022-08-14T10:15:48;8.93;;;8.10;;
4464;SDS011;2245;48.136;13.428;2022-08-14T10:18:16;8.80;;;7.97;;
4464;SDS011;2245;48.136;13.428;2022-08-14T10:20:50;8.43;;;7.53;;
4464;SDS011;2245;48.136;13.428;2022-08-14T10:23:20;8.67;;;7.70;;
4464;SDS011;2245;48.136;13.428;2022-08-14T10:25:48;9.03;;;7.60;;
4464;SDS011;2245;48.136;13.428;2022-08-14T10:28:17;8.90;;;8.03;;
4464;SDS011;2245;48.136;13.428;2022-08-14T10:30:45;8.80;;;7.90;;
4464;SDS011;2245;48.136;13.428;2022-08-14T10:33:24;8.67;;;7.77;;
4464;SDS011;2245;48.136;13.428;2022-08-14T10:35:54;8.53;;;7.73;;
4464;SDS011;2245;48.136;13.428;2022-08-14T10:38:27;8.00;;;7.20;;
4464;SDS011;2245;48.136;13.428;2022-08-14T10:41:07;8.57;;;7.03;;
4464;SDS011;2245;48.136;13.428;2022-08-14T10:43:37;18.70;;;10.07;;
4464;SDS011;2245;48.136;13.428;2022-08-14T10:46:10;8.77;;;7.87;;
4464;SDS011;2245;48.136;13.428;2022-08-14T10:48:38;12.83;;;8.30;;
4464;SDS011;2245;48.136;13.428;2022-08-14T10:51:07;10.67;;;8.57;;
4464;SDS011;2245;48.136;13.428;2022-08-14T10:53:34;9.50;;;8.37;;
4464;SDS011;2245;48.136;13.428;2022-08-14T10:56:03;8.43;;;7.63;;
4464;SDS011;2245;48.136;13.428;2022-08-14T10:58:35;8.20;;;7.40;;
4464;SDS011;2245;48.136;13.428;2022-08-14T11:01:02;9.37;;;7.40;;
4464;SDS011;2245;48.136;13.428;2022-08-14T11:03:38;8.87;;;7.97;;
4464;SDS011;2245;48.136;13.428;2022-08-14T11:06:16;8.10;;;7.30;;
4464;SDS011;2245;48.136;13.428;2022-08-14T11:08:45;8.70;;;7.30;;
4464;SDS011;2245;48.136;13.428;2022-08-14T11:11:13;18.60;;;7.90;;
4464;SDS011;2245;48.136;13.428;2022-08-14T11:13:42;9.00;;;8.20;;
4464;SDS011;2245;48.136;13.428;2022-08-14T11:16:11;9.13;;;8.30;;
4464;SDS011;2245;48.136;13.428;2022-08-14T11:18:39;9.10;;;8.20;;
4464;SDS011;2245;48.136;13.428;2022-08-14T11:21:10;11.03;;;8.03;;
4464;SDS011;2245;48.136;13.428;2022-08-14T11:23:41;8.43;;;7.60;;
4464;SDS011;2245;48.136;13.428;2022-08-14T11:26:11;8.20;;;7.50;;
4464;SDS011;2245;48.136;13.428;2022-08-14T11:28:39;7.87;;;7.10;;
4464;SDS011;2245;48.136;13.428;2022-08-14T11:31:08;8.17;;;6.73;;
4464;SDS011;2245;48.136;13.428;2022-08-14T11:33:37;8.80;;;8.00;;
4464;SDS011;2245;48.136;13.428;2022-08-14T11:36:05;8.47;;;6.90;;
4464;SDS011;2245;48.136;13.428;2022-08-14T11:38:36;8.47;;;7.60;;
4464;SDS011;2245;48.136;13.428;2022-08-14T11:41:06;8.57;;;7.77;;
4464;SDS011;2245;48.136;13.428;2022-08-14T11:43:37;8.80;;;7.30;;
4464;SDS011;2245;48.136;13.428;2022-08-14T11:46:05;9.67;;;7.40;;
4464;SDS011;2245;48.136;13.428;2022-08-14T11:48:32;9.03;;;6.93;;
4464;SDS011;2245;48.136;13.428;2022-08-14T11:51:11;7.10;;;5.90;;
4464;SDS011;2245;48.136;13.428;2022-08-14T11:53:49;8.20;;;7.37;;
4464;SDS011;2245;48.136;13.428;2022-08-14T11:56:18;13.00;;;6.73;;
4464;SDS011;2245;48.136;13.428;2022-08-14T11:58:48;7.43;;;6.83;;
4464;SDS011;2245;48.136;13.428;2022-08-14T12:01:17;10.60;;;7.93;;
4464;SDS011;2245;48.136;13.428;2022-08-14T12:03:52;7.03;;;6.37;;
4464;SDS011;2245;48.136;13.428;2022-08-14T12:06:22;7.10;;;6.40;;
4464;SDS011;2245;48.136;13.428;2022-08-14T12:08:50;12.87;;;6.77;;
4464;SDS011;2245;48.136;13.428;2022-08-14T12:11:19;7.33;;;6.57;;
4464;SDS011;2245;48.136;13.428;2022-08-14T12:13:46;7.17;;;6.47;;
4464;SDS011;2245;48.136;13.428;2022-08-14T12:16:13;7.07;;;6.43;;
4464;SDS011;2245;48.136;13.428;2022-08-14T12:18:42;7.53;;;6.83;;
4464;SDS011;2245;48.136;13.428;2022-08-14T12:21:12;7.03;;;6.10;;
4464;SDS011;2245;48.136;13.428;2022-08-14T12:23:40;7.83;;;6.57;;
4464;SDS011;2245;48.136;13.428;2022-08-14T12:26:08;7.37;;;6.60;;
4464;SDS011;2245;48.136;13.428;2022-08-14T12:28:37;8.90;;;7.30;;
4464;SDS011;2245;48.136;13.428;2022-08-14T12:31:11;8.70;;;7.70;;
4464;SDS011;2245;48.136;13.428;2022-08-14T12:33:53;8.10;;;7.30;;
4464;SDS011;2245;48.136;13.428;2022-08-14T12:36:21;12.30;;;7.00;;
4464;SDS011;2245;48.136;13.428;2022-08-14T12:38:48;6.87;;;6.27;;
4464;SDS011;2245;48.136;13.428;2022-08-14T12:41:16;9.03;;;5.97;;
4464;SDS011;2245;48.136;13.428;2022-08-14T12:43:47;7.63;;;6.87;;
4464;SDS011;2245;48.136;13.428;2022-08-14T12:46:21;8.83;;;7.00;;
4464;SDS011;2245;48.136;13.428;2022-08-14T12:48:52;8.37;;;7.47;;
4464;SDS011;2245;48.136;13.428;2022-08-14T12:51:21;7.20;;;6.23;;
4464;SDS011;2245;48.136;13.428;2022-08-14T12:53:50;7.13;;;6.03;;
4464;SDS011;2245;48.136;13.428;2022-08-14T12:56:18;8.30;;;6.33;;
4464;SDS011;2245;48.136;13.428;2022-08-14T12:58:48;8.30;;;6.07;;
4464;SDS011;2245;48.136;13.428;2022-08-14T13:01:17;7.03;;;6.33;;
4464;SDS011;2245;48.136;13.428;2022-08-14T13:03:45;7.27;;;6.57;;
4464;SDS011;2245;48.136;13.428;2022-08-14T13:06:12;8.17;;;6.83;;
4464;SDS011;2245;48.136;13.428;2022-08-14T13:08:42;7.90;;;6.33;;
4464;SDS011;2245;48.136;13.428;2022-08-14T13:11:10;7.60;;;6.80;;
4464;SDS011;2245;48.136;13.428;2022-08-14T13:13:39;7.30;;;6.43;;
4464;SDS011;2245;48.136;13.428;2022-08-14T13:16:08;6.37;;;5.77;;
4464;SDS011;2245;48.136;13.428;2022-08-14T13:18:37;6.33;;;5.73;;
4464;SDS011;2245;48.136;13.428;2022-08-14T13:21:06;9.20;;;6.20;;
4464;SDS011;2245;48.136;13.428;2022-08-14T13:23:34;5.80;;;5.30;;
4464;SDS011;2245;48.136;13.428;2022-08-14T13:26:03;7.33;;;6.30;;
4464;SDS011;2245;48.136;13.428;2022-08-14T13:28:30;11.80;;;6.27;;
4464;SDS011;2245;48.136;13.428;2022-08-14T13:30:57;6.90;;;6.17;;
4464;SDS011;2245;48.136;13.428;2022-08-14T13:33:29;8.20;;;7.37;;
4464;SDS011;2245;48.136;13.428;2022-08-14T13:35:57;7.53;;;6.73;;
4464;SDS011;2245;48.136;13.428;2022-08-14T13:38:24;7.27;;;6.57;;
4464;SDS011;2245;48.136;13.428;2022-08-14T13:40:52;7.20;;;6.50;;
4464;SDS011;2245;48.136;13.428;2022-08-14T13:43:21;5.90;;;5.30;;
4464;SDS011;2245;48.136;13.428;2022-08-14T13:45:48;6.77;;;6.07;;
4464;SDS011;2245;48.136;13.428;2022-08-14T13:48:15;8.10;;;7.40;;
4464;SDS011;2245;48.136;13.428;2022-08-14T13:50:43;7.87;;;6.70;;
4464;SDS011;2245;48.136;13.428;2022-08-14T13:53:12;6.47;;;5.87;;
4464;SDS011;2245;48.136;13.428;2022-08-14T13:55:41;8.27;;;6.80;;
4464;SDS011;2245;48.136;13.428;2022-08-14T13:58:09;11.00;;;6.90;;
4464;SDS011;2245;48.136;13.428;2022-08-14T14:00:38;7.40;;;6.70;;
4464;SDS011;2245;48.136;13.428;2022-08-14T14:03:05;7.13;;;6.40;;
4464;SDS011;2245;48.136;13.428;2022-08-14T14:05:32;7.77;;;6.93;;
4464;SDS011;2245;48.136;13.428;2022-08-14T14:08:02;7.57;;;6.50;;
4464;SDS011;2245;48.136;13.428;2022-08-14T14:10:31;6.83;;;6.13;;
4464;SDS011;2245;48.136;13.428;2022-08-14T14:12:59;6.97;;;6.27;;
4464;SDS011;2245;48.136;13.428;2022-08-14T14:15:26;7.13;;;6.50;;
4464;SDS011;2245;48.136;13.428;2022-08-14T14:17:53;8.00;;;6.00;;
4464;SDS011;2245;48.136;13.428;2022-08-14T14:20:21;6.33;;;5.77;;
4464;SDS011;2245;48.136;13.428;2022-08-14T14:22:50;6.77;;;5.97;;
4464;SDS011;2245;48.136;13.428;2022-08-14T14:25:19;11.10;;;6.00;;
4464;SDS011;2245;48.136;13.428;2022-08-14T14:27:47;7.00;;;6.40;;
4464;SDS011;2245;48.136;13.428;2022-08-14T14:30:15;11.40;;;6.50;;
4464;SDS011;2245;48.136;13.428;2022-08-14T14:32:43;8.23;;;6.60;;
4464;SDS011;2245;48.136;13.428;2022-08-14T14:35:11;7.30;;;6.17;;
4464;SDS011;2245;48.136;13.428;2022-08-14T14:37:40;6.70;;;6.10;;
4464;SDS011;2245;48.136;13.428;2022-08-14T14:40:08;7.17;;;5.77;;
4464;SDS011;2245;48.136;13.428;2022-08-14T14:42:40;7.97;;;7.00;;
4464;SDS011;2245;48.136;13.428;2022-08-14T14:45:13;8.27;;;6.90;;
4464;SDS011;2245;48.136;13.428;2022-08-14T14:47:42;9.60;;;6.57;;
4464;SDS011;2245;48.136;13.428;2022-08-14T14:50:10;8.30;;;5.80;;
4464;SDS011;2245;48.136;13.428;2022-08-14T14:52:37;7.10;;;6.40;;
4464;SDS011;2245;48.136;13.428;2022-08-14T14:55:06;8.20;;;6.90;;
4464;SDS011;2245;48.136;13.428;2022-08-14T14:57:37;7.40;;;6.70;;
4464;SDS011;2245;48.136;13.428;2022-08-14T15:00:05;6.47;;;5.77;;
4464;SDS011;2245;48.136;13.428;2022-08-14T15:02:35;6.67;;;6.07;;
4464;SDS011;2245;48.136;13.428;2022-08-14T15:05:03;7.37;;;6.67;;
4464;SDS011;2245;48.136;13.428;2022-08-14T15:07:32;6.40;;;5.80;;